Time,TemperatureF,DewpointF,PressureIn,WindDirection,WindDirectionDegrees,WindSpeedMPH,WindSpeedGustMPH,Humidity,HourlyPrecipIn,Conditions,Clouds,dailyrainin,SoftwareType,DateUTC
2013-12-04 00:05:00,48.8,36.0,29.79,ESE,117,0.0,-999.0,62,-99.99,,,0.00,weatherlink.com 1.10,2013-12-04 05:05:00,
2013-12-04 00:20:00,48.5,36.0,29.78,ESE,106,0.0,-999.0,62,-99.99,,,0.00,weatherlink.com 1.10,2013-12-04 05:20:00,
2013-12-04 00:35:00,49.1,36.0,29.78,ENE,69,0.0,-999.0,61,-99.99,,,0.00,weatherlink.com 1.10,2013-12-04 05:35:00,
2013-12-04 00:50:00,49.5,36.0,29.78,ESE,114,0.0,-999.0,61,-99.99,,,0.00,weatherlink.com 1.10,2013-12-04 05:50:00,
2013-12-04 01:05:00,49.4,37.0,29.77,ESE,104,0.0,-999.0,62,-99.99,,,0.00,weatherlink.com 1.10,2013-12-04 06:05:00,
2013-12-04 01:20:00,49.5,37.0,29.80,SE,130,0.0,-999.0,62,-99.99,,,0.00,weatherlink.com 1.10,2013-12-04 06:20:00,
2013-12-04 01:35:00,49.6,37.0,29.80,SE,128,0.0,-999.0,62,-99.99,,,0.00,weatherlink.com 1.10,2013-12-04 06:35:00,
2013-12-04 01:51:00,50.5,38.0,29.80,East,90,0.0,-999.0,62,-99.99,,,0.00,weatherlink.com 1.10,2013-12-04 06:51:00,
2013-12-04 02:06:00,50.7,38.0,29.80,ENE,59,0.0,-999.0,62,-99.99,,,0.00,weatherlink.com 1.10,2013-12-04 07:06:00,
2013-12-04 02:21:00,50.7,38.0,29.81,ENE,76,0.0,-999.0,62,-99.99,,,0.00,weatherlink.com 1.10,2013-12-04 07:21:00,
2013-12-04 02:36:00,51.0,37.0,29.82,ENE,65,0.0,-999.0,60,-99.99,,,0.00,weatherlink.com 1.10,2013-12-04 07:36:00,
2013-12-04 02:51:00,51.3,38.0,29.82,ESE,109,0.0,-999.0,60,-99.99,,,0.00,weatherlink.com 1.10,2013-12-04 07:51:00,
2013-12-04 03:06:00,51.1,38.0,29.81,ESE,123,0.0,-999.0,61,-99.99,,,0.00,weatherlink.com 1.10,2013-12-04 08:06:00,
2013-12-04 03:21:00,51.1,38.0,29.82,ESE,120,0.0,-999.0,62,-99.99,,,0.00,weatherlink.com 1.10,2013-12-04 08:21:00,
2013-12-04 03:36:00,50.7,38.0,29.81,SE,131,0.0,-999.0,63,-99.99,,,0.00,weatherlink.com 1.10,2013-12-04 08:36:00,
2013-12-04 03:51:00,51.0,39.0,29.81,SE,128,0.0,-999.0,63,-99.99,,,0.00,weatherlink.com 1.10,2013-12-04 08:51:00,
2013-12-04 04:06:00,51.4,39.0,29.81,SE,128,0.0,-999.0,63,-99.99,,,0.00,weatherlink.com 1.10,2013-12-04 09:06:00,
2013-12-04 04:21:00,51.3,39.0,29.81,ESE,123,0.0,-999.0,64,-99.99,,,0.00,weatherlink.com 1.10,2013-12-04 09:21:00,
2013-12-04 04:36:00,51.6,40.0,29.81,ESE,104,1.0,-999.0,64,-99.99,,,0.00,weatherlink.com 1.10,2013-12-04 09:36:00,
2013-12-04 04:51:00,51.9,40.0,29.81,ESE,110,0.0,-999.0,63,-99.99,,,0.00,weatherlink.com 1.10,2013-12-04 09:51:00,
2013-12-04 05:06:00,52.0,40.0,29.81,East,82,0.0,-999.0,64,-99.99,,,0.00,weatherlink.com 1.10,2013-12-04 10:06:00,
2013-12-04 05:21:00,51.0,40.0,29.81,East,90,0.0,-999.0,66,-99.99,,,0.00,weatherlink.com 1.10,2013-12-04 10:21:00,
2013-12-04 05:36:00,51.3,39.0,29.81,ESE,116,0.0,-999.0,64,-99.99,,,0.00,weatherlink.com 1.10,2013-12-04 10:36:00,
2013-12-04 05:51:00,50.2,39.0,29.82,ESE,113,0.0,-999.0,66,-99.99,,,0.00,weatherlink.com 1.10,2013-12-04 10:51:00,
2013-12-04 06:06:00,49.6,39.0,29.83,ESE,110,0.0,-999.0,68,-99.99,,,0.00,weatherlink.com 1.10,2013-12-04 11:06:00,
2013-12-04 06:21:00,49.8,40.0,29.83,East,93,0.0,-999.0,68,-99.99,,,0.00,weatherlink.com 1.10,2013-12-04 11:21:00,
2013-12-04 06:36:00,49.4,40.0,29.84,East,88,0.0,-999.0,69,-99.99,,,0.00,weatherlink.com 1.10,2013-12-04 11:36:00,
2013-12-04 06:51:00,50.1,40.0,29.85,ESE,110,0.0,-999.0,68,-99.99,,,0.00,weatherlink.com 1.10,2013-12-04 11:51:00,
2013-12-04 07:06:00,50.8,41.0,29.85,ESE,119,0.0,-999.0,68,-99.99,,,0.00,weatherlink.com 1.10,2013-12-04 12:06:00,
2013-12-04 07:21:00,51.1,41.0,29.86,ESE,112,0.0,-999.0,68,-99.99,,,0.00,weatherlink.com 1.10,2013-12-04 12:21:00,
2013-12-04 07:36:00,51.3,41.0,29.86,SE,140,0.0,-999.0,68,-99.99,,,0.00,weatherlink.com 1.10,2013-12-04 12:36:00,
2013-12-04 07:51:00,52.0,42.0,29.86,ESE,117,0.0,-999.0,68,-99.99,,,0.00,weatherlink.com 1.10,2013-12-04 12:51:00,
2013-12-04 08:06:00,52.9,42.0,29.87,SE,143,0.0,-999.0,67,-99.99,,,0.00,weatherlink.com 1.10,2013-12-04 13:06:00,
2013-12-04 08:21:00,53.3,43.0,29.87,SE,127,0.0,-999.0,67,-99.99,,,0.00,weatherlink.com 1.10,2013-12-04 13:21:00,
2013-12-04 08:36:00,53.8,43.0,29.87,ESE,114,0.0,-999.0,67,-99.99,,,0.00,weatherlink.com 1.10,2013-12-04 13:36:00,
2013-12-04 08:51:00,54.4,43.0,29.87,ESE,120,0.0,-999.0,65,-99.99,,,0.00,weatherlink.com 1.10,2013-12-04 13:51:00,
2013-12-04 09:06:00,54.8,43.0,29.87,ESE,119,0.0,-999.0,65,-99.99,,,0.00,weatherlink.com 1.10,2013-12-04 14:06:00,
2013-12-04 09:21:00,55.6,43.0,29.87,ESE,120,0.0,-999.0,64,-99.99,,,0.00,weatherlink.com 1.10,2013-12-04 14:21:00,
2013-12-04 09:36:00,56.5,43.0,29.87,ESE,120,0.0,-999.0,61,-99.99,,,0.00,weatherlink.com 1.10,2013-12-04 14:36:00,
2013-12-04 09:51:00,57.8,43.0,29.88,ESE,120,0.0,-999.0,59,-99.99,,,0.00,weatherlink.com 1.10,2013-12-04 14:51:00,
2013-12-04 10:06:00,58.9,43.0,29.88,SE,131,1.0,-999.0,57,-99.99,,,0.00,weatherlink.com 1.10,2013-12-04 15:06:00,
2013-12-04 10:21:00,58.9,44.0,29.89,SE,128,0.0,-999.0,58,-99.99,,,0.00,weatherlink.com 1.10,2013-12-04 15:21:00,
2013-12-04 10:36:00,59.5,44.0,29.88,SE,133,1.0,-999.0,56,-99.99,,,0.00,weatherlink.com 1.10,2013-12-04 15:36:00,
2013-12-04 10:51:00,60.1,44.0,29.88,SE,145,0.0,-999.0,55,-99.99,,,0.00,weatherlink.com 1.10,2013-12-04 15:51:00,
2013-12-04 11:06:00,60.4,43.0,29.88,SSE,151,0.0,-999.0,54,-99.99,,,0.00,weatherlink.com 1.10,2013-12-04 16:06:00,
2013-12-04 11:21:00,60.7,43.0,29.86,SSE,152,0.0,-999.0,52,-99.99,,,0.00,weatherlink.com 1.10,2013-12-04 16:21:00,
2013-12-04 11:37:00,60.7,43.0,29.86,SSE,152,0.0,-999.0,53,-99.99,,,0.00,weatherlink.com 1.10,2013-12-04 16:37:00,
2013-12-04 11:52:00,60.2,43.0,29.85,South,185,3.0,-999.0,54,-99.99,,,0.00,weatherlink.com 1.10,2013-12-04 16:52:00,
2013-12-04 12:07:00,61.0,45.0,29.85,South,184,0.0,-999.0,55,-99.99,,,0.00,weatherlink.com 1.10,2013-12-04 17:07:00,
2013-12-04 12:22:00,61.5,44.0,29.84,SSE,164,0.0,-999.0,53,-99.99,,,0.00,weatherlink.com 1.10,2013-12-04 17:22:00,
2013-12-04 12:37:00,62.4,44.0,29.83,SSE,161,0.0,-999.0,52,-99.99,,,0.00,weatherlink.com 1.10,2013-12-04 17:37:00,
2013-12-04 12:52:00,62.3,44.0,29.82,SSE,148,0.0,-999.0,51,-99.99,,,0.00,weatherlink.com 1.10,2013-12-04 17:52:00,
2013-12-04 13:07:00,62.6,44.0,29.82,ESE,113,0.0,-999.0,51,-99.99,,,0.06,weatherlink.com 1.10,2013-12-04 18:07:00,
2013-12-04 13:22:00,63.7,44.0,29.80,North,357,0.0,-999.0,49,-99.99,,,0.37,weatherlink.com 1.10,2013-12-04 18:22:00,
2013-12-04 13:37:00,63.2,44.0,29.80,North,357,0.0,-999.0,50,-99.99,,,0.39,weatherlink.com 1.10,2013-12-04 18:37:00,
2013-12-04 13:52:00,63.4,43.0,29.79,North,357,0.0,-999.0,48,-99.99,,,0.39,weatherlink.com 1.10,2013-12-04 18:52:00,
2013-12-04 14:07:00,62.9,43.0,29.78,North,357,0.0,-999.0,48,-99.99,,,0.39,weatherlink.com 1.10,2013-12-04 19:07:00,
2013-12-04 14:22:00,62.3,43.0,29.78,North,357,0.0,-999.0,49,-99.99,,,0.39,weatherlink.com 1.10,2013-12-04 19:22:00,
2013-12-04 14:37:00,61.6,43.0,29.79,North,356,0.0,-999.0,51,-99.99,,,0.39,weatherlink.com 1.10,2013-12-04 19:37:00,
2013-12-04 14:52:00,62.1,44.0,29.78,NNW,347,0.0,-999.0,51,-99.99,,,0.40,weatherlink.com 1.10,2013-12-04 19:52:00,
2013-12-04 16:23:00,-999.0,-99.9,0.00,North,-999,-999.0,-999.0,-999,-99.99,,,0.00,weatherlink.com 1.10,2013-12-04 21:23:00,
2013-12-04 16:39:00,59.8,44.0,29.78,ESE,106,0.0,-999.0,56,-99.99,,,0.00,weatherlink.com 1.10,2013-12-04 21:39:00,
2013-12-04 16:54:00,59.9,43.0,29.78,SE,127,1.0,-999.0,55,-99.99,,,0.00,weatherlink.com 1.10,2013-12-04 21:54:00,
2013-12-04 17:09:00,59.6,44.0,29.78,East,80,0.0,-999.0,56,-99.99,,,0.00,weatherlink.com 1.10,2013-12-04 22:09:00,
2013-12-04 17:24:00,59.0,44.0,29.78,SSE,164,1.0,-999.0,57,-99.99,,,0.00,weatherlink.com 1.10,2013-12-04 22:24:00,
2013-12-04 17:39:00,57.8,44.0,29.78,ESE,121,3.0,-999.0,60,-99.99,,,0.00,weatherlink.com 1.10,2013-12-04 22:39:00,
2013-12-04 17:54:00,58.4,43.0,29.78,North,3,0.0,-999.0,58,-99.99,,,0.00,weatherlink.com 1.10,2013-12-04 22:54:00,
2013-12-04 18:09:00,58.4,43.0,29.78,East,99,0.0,-999.0,58,-99.99,,,0.00,weatherlink.com 1.10,2013-12-04 23:09:00,
2013-12-04 18:24:00,59.0,44.0,29.77,ENE,71,4.0,-999.0,57,-99.99,,,0.00,weatherlink.com 1.10,2013-12-04 23:24:00,
2013-12-04 18:39:00,58.7,44.0,29.76,ESE,117,0.0,-999.0,58,-99.99,,,0.00,weatherlink.com 1.10,2013-12-04 23:39:00,
2013-12-04 18:54:00,58.0,44.0,29.76,East,80,0.0,-999.0,59,-99.99,,,0.00,weatherlink.com 1.10,2013-12-04 23:54:00,
2013-12-04 19:09:00,56.5,43.0,29.77,ENE,73,6.0,-999.0,62,-99.99,,,0.00,weatherlink.com 1.10,2013-12-05 00:09:00,
2013-12-04 19:24:00,57.6,43.0,29.78,ESE,113,5.0,-999.0,59,-99.99,,,0.00,weatherlink.com 1.10,2013-12-05 00:24:00,
2013-12-04 19:39:00,57.8,43.0,29.78,NE,49,2.0,-999.0,59,-99.99,,,0.00,weatherlink.com 1.10,2013-12-05 00:39:00,
2013-12-04 19:54:00,58.0,44.0,29.78,East,79,2.0,-999.0,59,-99.99,,,0.00,weatherlink.com 1.10,2013-12-05 00:54:00,
2013-12-04 20:09:00,58.1,44.0,29.78,ENE,65,2.0,-999.0,59,-99.99,,,0.00,weatherlink.com 1.10,2013-12-05 01:09:00,
2013-12-04 20:24:00,58.0,44.0,29.78,East,99,1.0,-999.0,59,-99.99,,,0.00,weatherlink.com 1.10,2013-12-05 01:24:00,
2013-12-04 20:39:00,58.0,44.0,29.78,ENE,66,5.0,-999.0,59,-99.99,,,0.00,weatherlink.com 1.10,2013-12-05 01:39:00,
2013-12-04 20:54:00,57.6,43.0,29.78,East,82,0.0,-999.0,59,-99.99,,,0.00,weatherlink.com 1.10,2013-12-05 01:54:00,
2013-12-04 21:09:00,58.1,44.0,29.78,SE,127,0.0,-999.0,59,-99.99,,,0.00,weatherlink.com 1.10,2013-12-05 02:09:00,
2013-12-04 21:24:00,57.8,44.0,29.78,ESE,107,1.0,-999.0,60,-99.99,,,0.00,weatherlink.com 1.10,2013-12-05 02:24:00,
2013-12-04 21:39:00,57.3,44.0,29.78,ESE,117,5.0,-999.0,61,-99.99,,,0.00,weatherlink.com 1.10,2013-12-05 02:39:00,
2013-12-04 21:55:00,57.3,44.0,29.78,East,93,5.0,-999.0,61,-99.99,,,0.00,weatherlink.com 1.10,2013-12-05 02:55:00,
2013-12-04 22:10:00,57.0,44.0,29.78,ENE,65,0.0,-999.0,62,-99.99,,,0.00,weatherlink.com 1.10,2013-12-05 03:10:00,
2013-12-04 22:25:00,57.6,44.0,29.78,SE,131,6.0,-999.0,61,-99.99,,,0.00,weatherlink.com 1.10,2013-12-05 03:25:00,
2013-12-04 22:40:00,58.1,44.0,29.78,East,99,0.0,-999.0,60,-99.99,,,0.00,weatherlink.com 1.10,2013-12-05 03:40:00,
2013-12-04 22:55:00,58.3,45.0,29.78,ENE,76,4.0,-999.0,61,-99.99,,,0.00,weatherlink.com 1.10,2013-12-05 03:55:00,
2013-12-04 23:10:00,58.9,45.0,29.78,ESE,102,2.0,-999.0,60,-99.99,,,0.00,weatherlink.com 1.10,2013-12-05 04:10:00,
2013-12-04 23:25:00,58.9,45.0,29.79,East,83,0.0,-999.0,60,-99.99,,,0.00,weatherlink.com 1.10,2013-12-05 04:25:00,
2013-12-04 23:40:00,59.3,45.0,29.78,ESE,109,6.0,-999.0,60,-99.99,,,0.00,weatherlink.com 1.10,2013-12-05 04:40:00,
2013-12-04 23:55:00,59.8,45.0,29.79,SE,126,5.0,-999.0,59,-99.99,,,0.00,weatherlink.com 1.10,2013-12-05 04:55:00,